createdAt,value
2019-04-16T00:00:42.697Z,6.04
2019-04-16T00:01:45.338Z,5.86
2019-04-16T00:02:42.247Z,5.86
2019-04-16T00:03:42.361Z,5.88
2019-04-16T00:04:42.531Z,5.83
2019-04-16T00:05:42.662Z,5.70
2019-04-16T00:06:42.796Z,5.82
2019-04-16T00:07:43.803Z,5.83
2019-04-16T00:08:43.150Z,5.73
2019-04-16T00:09:43.309Z,5.64
2019-04-16T00:10:43.453Z,5.66
2019-04-16T00:11:43.606Z,5.66
2019-04-16T00:12:44.304Z,5.67
2019-04-16T00:13:43.924Z,5.59
2019-04-16T00:14:44.042Z,5.73
2019-04-16T00:15:44.302Z,5.66
2019-04-16T00:16:44.620Z,5.66
2019-04-16T00:17:47.260Z,5.71
2019-04-16T00:18:57.153Z,5.68
2019-04-16T00:19:47.005Z,5.82
2019-04-16T00:20:45.220Z,5.74
2019-04-16T00:21:45.342Z,5.73
2019-04-16T00:22:45.496Z,5.70
2019-04-16T00:23:46.797Z,5.70
2019-04-16T00:24:46.792Z,5.75
2019-04-16T00:25:45.911Z,5.77
2019-04-16T00:26:46.080Z,5.71
2019-04-16T00:27:46.816Z,5.71
2019-04-16T00:28:46.434Z,5.74
2019-04-16T00:29:46.577Z,5.68
2019-04-16T00:30:46.698Z,5.75
2019-04-16T00:31:46.852Z,5.83
2019-04-16T00:32:46.982Z,5.82
2019-04-16T00:33:47.816Z,5.98
2019-04-16T00:34:47.269Z,6.22
2019-04-16T00:35:47.511Z,6.35
2019-04-16T00:36:48.699Z,6.62
2019-04-16T00:37:51.409Z,6.51
2019-04-16T00:38:53.903Z,6.63
2019-04-16T00:39:49.255Z,6.63
2019-04-16T00:40:48.493Z,6.58
2019-04-16T00:41:48.626Z,6.54
2019-04-16T00:42:48.753Z,6.44
2019-04-16T00:43:48.900Z,6.32
2019-04-16T00:44:49.033Z,6.21
2019-04-16T00:45:49.159Z,6.03
2019-04-16T00:46:49.370Z,6.00
2019-04-16T00:47:51.474Z,5.89
2019-04-16T00:48:51.304Z,5.85
2019-04-16T00:49:49.878Z,5.86
2019-04-16T00:50:50.036Z,5.86
2019-04-16T00:51:50.202Z,5.92
2019-04-16T00:52:50.375Z,5.88
2019-04-16T00:53:50.522Z,5.92
2019-04-16T00:54:50.676Z,5.83
2019-04-16T00:55:50.821Z,5.81
2019-04-16T00:56:51.051Z,5.88
2019-04-16T00:57:51.194Z,5.89
2019-04-16T00:58:52.143Z,5.89
2019-04-16T00:59:56.367Z,5.92
2019-04-16T01:00:51.641Z,5.92
2019-04-16T01:01:52.305Z,6.03
2019-04-16T01:02:51.920Z,6.07
2019-04-16T01:03:52.058Z,6.14
2019-04-16T01:04:52.203Z,6.48
2019-04-16T01:05:52.348Z,6.47
2019-04-16T01:06:52.479Z,6.56
2019-04-16T01:07:52.606Z,6.61
2019-04-16T01:08:54.793Z,6.51
2019-04-16T01:09:53.928Z,6.53
2019-04-16T01:10:53.152Z,6.56
2019-04-16T01:11:53.293Z,6.63
2019-04-16T01:12:53.454Z,6.62
2019-04-16T01:13:55.573Z,6.76
2019-04-16T01:14:58.907Z,6.72
2019-04-16T01:15:54.856Z,6.77
2019-04-16T01:16:54.085Z,6.76
2019-04-16T01:17:54.228Z,6.79
2019-04-16T01:18:54.367Z,6.90
2019-04-16T01:19:54.492Z,6.98
2019-04-16T01:20:55.738Z,7.04
2019-04-16T01:21:54.959Z,7.07
2019-04-16T01:22:55.073Z,7.22
2019-04-16T01:23:55.205Z,7.29
2019-04-16T01:24:55.329Z,7.35
2019-04-16T01:25:56.219Z,7.42
2019-04-16T01:26:58.277Z,7.50
2019-04-16T01:27:59.802Z,7.52
2019-04-16T01:28:56.987Z,7.63
2019-04-16T01:29:56.205Z,7.60
2019-04-16T01:30:56.339Z,7.77
2019-04-16T01:31:56.414Z,7.75
2019-04-16T01:32:56.643Z,7.77
2019-04-16T01:33:56.877Z,7.74
2019-04-16T01:34:57.136Z,7.63
2019-04-16T01:35:57.254Z,7.72
2019-04-16T01:36:58.313Z,7.66
2019-04-16T01:37:57.929Z,7.63
2019-04-16T01:39:14.746Z,7.74
2019-04-16T01:40:00.333Z,7.74
2019-04-16T01:40:58.154Z,7.78
2019-04-16T01:41:58.399Z,7.72
2019-04-16T01:42:59.321Z,7.69
2019-04-16T01:43:58.798Z,7.60
2019-04-16T01:44:59.926Z,7.77
2019-04-16T01:46:01.470Z,7.72
2019-04-16T01:47:03.440Z,7.71
2019-04-16T01:48:00.538Z,7.74
2019-04-16T01:48:59.750Z,7.92
2019-04-16T01:49:59.902Z,7.87
2019-04-16T01:51:00.043Z,7.92
2019-04-16T01:52:00.210Z,7.94
2019-04-16T01:53:00.348Z,7.93
2019-04-16T01:54:00.471Z,7.82
2019-04-16T01:55:00.581Z,7.85
2019-04-16T01:56:01.324Z,7.78
2019-04-16T01:57:01.174Z,7.87
2019-04-16T01:58:02.701Z,7.93
2019-04-16T01:59:05.469Z,7.97
2019-04-16T02:00:06.831Z,8.10
2019-04-16T02:01:02.769Z,8.03
2019-04-16T02:02:02.347Z,8.14
2019-04-16T02:03:01.968Z,8.00
2019-04-16T02:04:03.010Z,7.97
2019-04-16T02:05:02.228Z,8.07
2019-04-16T02:06:02.346Z,8.11
2019-04-16T02:07:02.615Z,8.11
2019-04-16T02:08:02.746Z,8.14
2019-04-16T02:09:03.309Z,8.20
2019-04-16T02:10:07.539Z,8.14
2019-04-16T02:11:03.237Z,8.20
2019-04-16T02:12:03.549Z,8.15
2019-04-16T02:13:03.549Z,8.12
2019-04-16T02:14:04.324Z,8.11
2019-04-16T02:15:03.925Z,8.12
2019-04-16T02:16:04.025Z,8.11
2019-04-16T02:17:04.265Z,8.12
2019-04-16T02:18:04.388Z,8.17
2019-04-16T02:19:04.491Z,8.26
2019-04-16T02:20:06.176Z,8.11
2019-04-16T02:21:09.527Z,8.25
2019-04-16T02:22:06.200Z,8.15
2019-04-16T02:23:05.149Z,8.26
2019-04-16T02:24:06.331Z,8.18
2019-04-16T02:25:05.509Z,8.25
2019-04-16T02:26:06.331Z,8.21
2019-04-16T02:27:05.927Z,8.22
2019-04-16T02:28:06.338Z,8.22
2019-04-16T02:29:06.352Z,8.26
2019-04-16T02:30:06.763Z,8.21
2019-04-16T02:31:13.909Z,8.21
2019-04-16T02:32:08.972Z,8.21
2019-04-16T02:33:07.135Z,8.25
2019-04-16T02:34:07.353Z,8.30
2019-04-16T02:35:07.619Z,8.20
2019-04-16T02:36:07.740Z,8.26
2019-04-16T02:37:07.988Z,8.18
2019-04-16T02:38:12.213Z,8.26
2019-04-16T02:39:10.320Z,8.17
2019-04-16T02:40:08.492Z,8.08
2019-04-16T02:41:08.613Z,8.11
2019-04-16T02:42:08.783Z,8.15
2019-04-16T02:43:08.983Z,8.11
2019-04-16T02:44:14.051Z,8.07
2019-04-16T02:45:11.344Z,8.20
2019-04-16T02:46:09.543Z,8.14
2019-04-16T02:47:09.695Z,8.21
2019-04-16T02:48:15.510Z,8.25
2019-04-16T02:49:12.002Z,8.26
2019-04-16T02:50:10.115Z,8.15
2019-04-16T02:51:10.248Z,8.30
2019-04-16T02:52:14.991Z,8.21
2019-04-16T02:53:12.689Z,8.22
2019-04-16T02:54:10.662Z,8.17
2019-04-16T02:55:11.338Z,8.21
2019-04-16T02:56:17.381Z,8.25
2019-04-16T02:57:13.198Z,8.15
2019-04-16T02:58:11.390Z,8.17
2019-04-16T02:59:13.378Z,8.11
2019-04-16T03:00:17.581Z,8.21
2019-04-16T03:01:13.089Z,8.28
2019-04-16T03:02:12.191Z,8.10
2019-04-16T03:03:12.381Z,8.15
2019-04-16T03:04:12.519Z,8.18
2019-04-16T03:05:12.670Z,8.21
2019-04-16T03:06:12.821Z,8.20
2019-04-16T03:07:12.969Z,8.17
2019-04-16T03:08:13.103Z,8.12
2019-04-16T03:09:13.225Z,8.15
2019-04-16T03:10:13.959Z,8.26
2019-04-16T03:11:17.058Z,8.21
2019-04-16T03:12:13.730Z,8.17
2019-04-16T03:13:13.967Z,8.22
2019-04-16T03:14:14.101Z,8.28
2019-04-16T03:15:14.333Z,8.15
2019-04-16T03:16:14.907Z,8.14
2019-04-16T03:17:14.741Z,8.26
2019-04-16T03:18:16.140Z,8.22
2019-04-16T03:19:19.248Z,8.17
2019-04-16T03:20:17.301Z,8.14
2019-04-16T03:21:15.518Z,8.20
2019-04-16T03:22:15.637Z,8.11
2019-04-16T03:23:15.737Z,8.14
2019-04-16T03:24:15.967Z,8.21
2019-04-16T03:25:16.108Z,8.18
2019-04-16T03:26:18.070Z,8.11
2019-04-16T03:27:21.899Z,8.18
2019-04-16T03:28:17.672Z,8.35
2019-04-16T03:29:17.836Z,8.32
2019-04-16T03:30:17.048Z,8.20
2019-04-16T03:31:22.143Z,8.22
2019-04-16T03:32:19.412Z,8.25
2019-04-16T03:33:17.600Z,8.22
2019-04-16T03:34:19.032Z,8.15
2019-04-16T03:35:19.022Z,8.18
2019-04-16T03:36:18.207Z,8.26
2019-04-16T03:37:18.432Z,8.29
2019-04-16T03:38:18.651Z,8.26
2019-04-16T03:39:18.909Z,8.30
2019-04-16T03:40:24.750Z,8.20
2019-04-16T03:41:20.223Z,8.26
2019-04-16T03:42:19.428Z,8.22
2019-04-16T03:43:19.660Z,8.26
2019-04-16T03:44:19.791Z,8.32
2019-04-16T03:45:19.899Z,8.28
2019-04-16T03:46:20.025Z,8.20
2019-04-16T03:47:20.272Z,8.26
2019-04-16T03:48:20.694Z,8.25
2019-04-16T03:49:21.655Z,8.26
2019-04-16T03:50:20.878Z,8.25
2019-04-16T03:51:21.000Z,8.29
2019-04-16T03:52:21.222Z,8.32
2019-04-16T03:53:22.341Z,8.35
2019-04-16T03:54:22.466Z,8.30
2019-04-16T03:55:43.718Z,8.32
2019-04-16T03:56:21.886Z,8.26
2019-04-16T03:57:21.995Z,8.28
2019-04-16T03:58:22.209Z,8.26
2019-04-16T03:59:22.453Z,8.29
2019-04-16T04:00:23.718Z,8.21
2019-04-16T04:01:22.790Z,8.22
2019-04-16T04:02:23.190Z,8.32
2019-04-16T04:03:26.137Z,8.21
2019-04-16T04:04:28.950Z,8.20
2019-04-16T04:05:24.624Z,8.25
2019-04-16T04:06:23.810Z,8.25
2019-04-16T04:07:23.946Z,8.21
2019-04-16T04:08:24.174Z,8.25
2019-04-16T04:09:24.862Z,8.28
2019-04-16T04:10:30.875Z,8.18
2019-04-16T04:11:26.782Z,8.22
2019-04-16T04:12:27.626Z,8.15
2019-04-16T04:13:25.184Z,8.22
2019-04-16T04:14:25.506Z,8.17
2019-04-16T04:15:27.126Z,8.25
2019-04-16T04:16:27.348Z,8.28
2019-04-16T04:17:26.032Z,8.20
2019-04-16T04:18:26.277Z,8.18
2019-04-16T04:19:27.350Z,8.30
2019-04-16T04:20:26.533Z,8.30
2019-04-16T04:21:26.738Z,8.36
2019-04-16T04:22:26.970Z,8.29
2019-04-16T04:23:28.527Z,8.30
2019-04-16T04:24:31.315Z,8.39
2019-04-16T04:25:28.599Z,8.42
2019-04-16T04:26:27.794Z,8.45
2019-04-16T04:27:27.997Z,8.42
2019-04-16T04:28:28.214Z,8.51
2019-04-16T04:29:28.452Z,8.40
2019-04-16T04:30:29.604Z,8.42
2019-04-16T04:31:32.357Z,8.42
2019-04-16T04:32:32.460Z,8.50
2019-04-16T04:33:30.220Z,8.40
2019-04-16T04:34:29.443Z,8.36
2019-04-16T04:35:29.590Z,8.35
2019-04-16T04:36:29.876Z,8.37
2019-04-16T04:37:31.909Z,8.42
2019-04-16T04:38:33.606Z,8.39
2019-04-16T04:39:31.455Z,8.44
2019-04-16T04:40:43.741Z,8.47
2019-04-16T04:41:32.800Z,8.40
2019-04-16T04:42:31.848Z,8.48
2019-04-16T04:43:32.608Z,8.45
2019-04-16T04:44:33.602Z,8.36
2019-04-16T04:45:32.529Z,8.44
2019-04-16T04:46:31.740Z,8.45
2019-04-16T04:47:31.972Z,8.45
2019-04-16T04:48:32.077Z,8.47
2019-04-16T04:49:32.308Z,8.48
2019-04-16T04:50:35.364Z,8.40
2019-04-16T04:51:32.657Z,8.47
2019-04-16T04:52:32.882Z,8.47
2019-04-16T04:53:32.988Z,8.48
2019-04-16T04:54:33.212Z,8.48
2019-04-16T04:55:33.446Z,8.54
2019-04-16T04:56:33.669Z,8.60
2019-04-16T04:57:33.806Z,8.57
2019-04-16T04:58:34.779Z,8.58
2019-04-16T04:59:36.743Z,8.57
2019-04-16T05:00:37.452Z,8.65
2019-04-16T05:01:34.438Z,8.63
2019-04-16T05:02:34.652Z,8.66
2019-04-16T05:03:34.868Z,8.68
2019-04-16T05:04:35.099Z,8.73
2019-04-16T05:05:35.245Z,8.71
2019-04-16T05:06:35.483Z,8.72
2019-04-16T05:07:35.609Z,8.83
2019-04-16T05:08:35.750Z,8.81
2019-04-16T05:09:36.740Z,8.81
2019-04-16T05:10:42.851Z,8.87
2019-04-16T05:11:37.352Z,8.84
2019-04-16T05:12:36.572Z,8.81
2019-04-16T05:13:36.684Z,8.90
2019-04-16T05:14:36.806Z,8.88
2019-04-16T05:15:37.072Z,8.90
2019-04-16T05:16:37.176Z,8.90
2019-04-16T05:17:38.488Z,8.84
2019-04-16T05:18:41.973Z,8.87
2019-04-16T05:19:37.808Z,8.88
2019-04-16T05:20:37.914Z,8.97
2019-04-16T05:21:38.122Z,8.97
2019-04-16T05:22:38.869Z,9.06
2019-04-16T05:23:38.578Z,9.09
2019-04-16T05:24:38.853Z,9.15
2019-04-16T05:25:38.985Z,9.13
2019-04-16T05:26:39.080Z,9.15
2019-04-16T05:27:41.213Z,9.32
2019-04-16T05:28:44.516Z,9.27
2019-04-16T05:29:40.659Z,9.42
2019-04-16T05:30:40.833Z,9.48
2019-04-16T05:31:40.035Z,9.57
2019-04-16T05:32:40.250Z,9.49
2019-04-16T05:33:40.474Z,9.45
2019-04-16T05:34:40.685Z,9.61
2019-04-16T05:35:41.457Z,9.61
2019-04-16T05:36:46.232Z,9.60
2019-04-16T05:37:43.225Z,9.58
2019-04-16T05:38:41.384Z,9.67
2019-04-16T05:39:41.633Z,9.67
2019-04-16T05:40:41.875Z,9.66
2019-04-16T05:41:42.368Z,9.68
2019-04-16T05:42:42.865Z,9.73
2019-04-16T05:43:42.462Z,9.75
2019-04-16T05:44:42.602Z,9.83
2019-04-16T05:45:42.714Z,9.91
2019-04-16T05:46:46.522Z,9.86
2019-04-16T05:47:48.744Z,9.88
2019-04-16T05:48:43.350Z,9.94
2019-04-16T05:49:43.463Z,9.97
2019-04-16T05:50:43.588Z,10.09
2019-04-16T05:51:44.762Z,10.24
2019-04-16T05:52:43.962Z,10.34
2019-04-16T05:53:44.194Z,10.34
2019-04-16T05:54:45.345Z,10.19
2019-04-16T05:55:49.647Z,10.34
2019-04-16T05:56:44.626Z,10.62
2019-04-16T05:57:44.731Z,10.78
2019-04-16T05:58:44.978Z,11.02
2019-04-16T05:59:45.203Z,11.28
2019-04-16T06:00:45.451Z,11.20
2019-04-16T06:01:46.219Z,11.25
2019-04-16T06:02:49.780Z,11.21
2019-04-16T06:03:46.951Z,10.95
2019-04-16T06:04:46.179Z,10.56
2019-04-16T06:05:46.313Z,10.59
2019-04-16T06:06:46.431Z,10.42
2019-04-16T06:07:46.545Z,10.47
2019-04-16T06:08:46.671Z,10.36
2019-04-16T06:09:46.801Z,10.47
2019-04-16T06:10:49.795Z,10.44
2019-04-16T06:11:48.091Z,10.40
2019-04-16T06:12:47.301Z,10.44
2019-04-16T06:13:48.361Z,10.51
2019-04-16T06:14:49.560Z,10.43
2019-04-16T06:15:50.226Z,10.42
2019-04-16T06:16:48.928Z,10.47
2019-04-16T06:17:48.124Z,10.59
2019-04-16T06:18:49.863Z,10.66
2019-04-16T06:19:48.555Z,10.65
2019-04-16T06:20:49.323Z,10.76
2019-04-16T06:21:49.974Z,10.73
2019-04-16T06:22:49.198Z,10.66
2019-04-16T06:23:49.866Z,10.84
2019-04-16T06:24:50.369Z,10.71
2019-04-16T06:25:49.627Z,10.98
2019-04-16T06:26:49.753Z,11.09
2019-04-16T06:27:49.885Z,10.96
2019-04-16T06:28:55.120Z,10.96
2019-04-16T06:29:51.348Z,10.94
2019-04-16T06:30:50.548Z,10.98
2019-04-16T06:31:50.756Z,11.20
2019-04-16T06:32:50.989Z,11.29
2019-04-16T06:33:52.252Z,11.39
2019-04-16T06:34:51.468Z,11.49
2019-04-16T06:35:51.886Z,11.49
2019-04-16T06:36:51.860Z,11.44
2019-04-16T06:37:52.082Z,11.47
2019-04-16T06:38:54.983Z,11.59
2019-04-16T06:39:52.500Z,11.49
2019-04-16T06:40:52.759Z,11.54
2019-04-16T06:41:52.859Z,11.57
2019-04-16T06:42:54.108Z,11.70
2019-04-16T06:43:58.357Z,11.78
2019-04-16T06:44:55.373Z,11.74
2019-04-16T06:45:53.696Z,11.78
2019-04-16T06:46:53.895Z,11.93
2019-04-16T06:47:54.999Z,11.97
2019-04-16T06:48:54.177Z,11.82
2019-04-16T06:49:56.375Z,12.02
2019-04-16T06:50:54.551Z,12.13
2019-04-16T06:51:54.909Z,12.19
2019-04-16T06:52:55.879Z,12.30
2019-04-16T06:53:56.870Z,12.37
2019-04-16T06:54:56.875Z,12.44
2019-04-16T06:55:55.552Z,12.48
2019-04-16T06:56:55.896Z,12.63
2019-04-16T06:57:56.023Z,12.70
2019-04-16T06:58:57.427Z,12.75
2019-04-16T06:59:59.561Z,12.81
2019-04-16T07:00:57.366Z,12.93
2019-04-16T07:01:57.713Z,12.85
2019-04-16T07:03:02.468Z,12.77
2019-04-16T07:03:59.966Z,12.67
2019-04-16T07:05:00.836Z,12.78
2019-04-16T07:05:58.470Z,12.82
2019-04-16T07:06:57.895Z,12.81
2019-04-16T07:07:57.855Z,12.93
2019-04-16T07:08:58.067Z,12.82
2019-04-16T07:09:59.289Z,12.77
2019-04-16T07:10:58.480Z,12.81
2019-04-16T07:11:58.721Z,12.95
2019-04-16T07:12:59.883Z,13.14
2019-04-16T07:13:59.075Z,13.21
2019-04-16T07:14:59.308Z,13.36
2019-04-16T07:15:59.523Z,13.46
2019-04-16T07:17:00.924Z,13.52
2019-04-16T07:18:02.532Z,13.77
2019-04-16T07:19:01.107Z,13.76
2019-04-16T07:20:00.304Z,13.81
2019-04-16T07:21:00.513Z,13.79
2019-04-16T07:22:00.733Z,13.83
2019-04-16T07:23:01.887Z,14.01
2019-04-16T07:24:01.169Z,14.02
2019-04-16T07:25:04.259Z,14.19
2019-04-16T07:26:03.855Z,14.20
2019-04-16T07:27:02.698Z,14.50
2019-04-16T07:28:01.785Z,14.69
2019-04-16T07:29:02.077Z,15.45
2019-04-16T07:30:06.814Z,16.45
2019-04-16T07:31:04.456Z,17.18
2019-04-16T07:32:03.095Z,17.54
2019-04-16T07:33:02.844Z,17.92
2019-04-16T07:34:03.093Z,17.87
2019-04-16T07:35:03.323Z,18.17
2019-04-16T07:36:03.495Z,18.03
2019-04-16T07:37:03.727Z,18.36
2019-04-16T07:38:06.265Z,18.49
2019-04-16T07:39:06.110Z,18.74
2019-04-16T07:40:08.340Z,18.52
2019-04-16T07:41:10.991Z,18.15
2019-04-16T07:42:10.268Z,17.85
2019-04-16T07:43:06.861Z,17.36
2019-04-16T07:44:10.018Z,17.88
2019-04-16T07:45:11.442Z,18.54
2019-04-16T07:46:06.491Z,18.74
2019-04-16T07:47:05.687Z,18.68
2019-04-16T07:48:06.927Z,18.04
2019-04-16T07:49:07.257Z,17.28
2019-04-16T07:50:06.251Z,17.14
2019-04-16T07:51:06.421Z,16.77
2019-04-16T07:52:07.282Z,17.10
2019-04-16T07:53:07.773Z,17.41
2019-04-16T07:54:06.991Z,18.00
2019-04-16T07:55:07.407Z,18.13
2019-04-16T07:56:07.268Z,17.64
2019-04-16T07:57:07.499Z,17.13
2019-04-16T07:58:07.910Z,17.20
2019-04-16T07:59:07.883Z,17.22
2019-04-16T08:00:09.665Z,17.53
2019-04-16T08:01:12.672Z,18.02
2019-04-16T08:02:10.459Z,18.10
2019-04-16T08:03:09.708Z,18.33
2019-04-16T08:04:08.776Z,18.22
2019-04-16T08:05:09.772Z,18.03
2019-04-16T08:06:10.714Z,18.40
2019-04-16T08:07:10.908Z,18.36
2019-04-16T08:08:09.574Z,17.89
2019-04-16T08:09:09.782Z,17.84
2019-04-16T08:10:10.006Z,17.82
2019-04-16T08:11:10.225Z,18.03
2019-04-16T08:12:22.033Z,18.10
2019-04-16T08:13:14.130Z,18.37
2019-04-16T08:14:14.628Z,18.31
2019-04-16T08:15:14.185Z,18.52
2019-04-16T08:16:12.408Z,18.54
2019-04-16T08:17:11.471Z,18.90
2019-04-16T08:18:11.701Z,19.13
2019-04-16T08:19:12.259Z,19.31
2019-04-16T08:20:13.915Z,18.87
2019-04-16T08:21:12.578Z,18.86
2019-04-16T08:22:15.832Z,17.89
2019-04-16T08:23:16.626Z,17.50
2019-04-16T08:24:14.016Z,17.78
2019-04-16T08:25:13.901Z,17.87
2019-04-16T08:26:13.900Z,17.85
2019-04-16T08:27:19.128Z,18.12
2019-04-16T08:28:13.682Z,19.14
2019-04-16T08:29:13.917Z,19.97
2019-04-16T08:30:14.910Z,20.58
2019-04-16T08:31:14.276Z,20.68
2019-04-16T08:32:16.109Z,20.74
2019-04-16T08:33:15.578Z,20.87
2019-04-16T08:34:14.793Z,21.30
2019-04-16T08:35:15.015Z,21.08
2019-04-16T08:36:15.142Z,20.86
2019-04-16T08:37:15.368Z,19.83
2019-04-16T08:38:15.604Z,19.32
2019-04-16T08:39:15.828Z,19.47
2019-04-16T08:40:16.042Z,19.98
2019-04-16T08:41:20.000Z,20.34
2019-04-16T08:42:17.308Z,20.23
2019-04-16T08:43:16.506Z,20.59
2019-04-16T08:44:16.715Z,20.18
2019-04-16T08:45:20.441Z,19.48
2019-04-16T08:46:17.105Z,19.29
2019-04-16T08:47:17.224Z,19.36
2019-04-16T08:48:18.912Z,18.87
2019-04-16T08:49:22.104Z,19.36
2019-04-16T08:50:18.932Z,19.57
2019-04-16T08:51:29.634Z,19.76
2019-04-16T08:52:19.245Z,19.66
2019-04-16T08:53:18.456Z,18.82
2019-04-16T08:54:18.889Z,19.05
2019-04-16T08:55:20.476Z,19.70
2019-04-16T08:56:19.970Z,19.72
2019-04-16T08:57:19.204Z,19.15
2019-04-16T08:58:19.356Z,18.92
2019-04-16T08:59:19.597Z,19.06
2019-04-16T09:00:19.760Z,19.10
2019-04-16T09:01:23.307Z,18.82
2019-04-16T09:02:23.495Z,18.79
2019-04-16T09:03:21.316Z,18.82
2019-04-16T09:04:20.641Z,18.98
2019-04-16T09:05:20.789Z,18.97
2019-04-16T09:06:20.942Z,19.10
2019-04-16T09:07:21.957Z,19.11
2019-04-16T09:08:22.044Z,19.11
2019-04-16T09:09:24.674Z,18.83
2019-04-16T09:10:24.049Z,18.70
2019-04-16T09:11:23.935Z,18.76
2019-04-16T09:12:22.961Z,18.74
2019-04-16T09:13:22.090Z,18.92
2019-04-16T09:14:25.736Z,19.11
2019-04-16T09:15:26.980Z,19.05
2019-04-16T09:16:22.539Z,19.08
2019-04-16T09:17:23.425Z,19.24
2019-04-16T09:18:22.919Z,19.60
2019-04-16T09:19:23.924Z,19.95
2019-04-16T09:20:23.938Z,19.98
2019-04-16T09:21:23.414Z,20.06
2019-04-16T09:22:23.529Z,20.20
2019-04-16T09:23:26.650Z,20.09
2019-04-16T09:24:24.821Z,20.16
2019-04-16T09:25:24.048Z,19.72
2019-04-16T09:26:24.202Z,19.90
2019-04-16T09:27:28.574Z,20.12
2019-04-16T09:28:26.590Z,20.08
2019-04-16T09:29:25.686Z,19.61
2019-04-16T09:30:24.898Z,19.20
2019-04-16T09:31:26.949Z,18.98
2019-04-16T09:32:28.189Z,18.91
2019-04-16T09:33:26.412Z,18.82
2019-04-16T09:34:25.612Z,18.73
2019-04-16T09:35:25.732Z,18.74
2019-04-16T09:36:25.970Z,18.95
2019-04-16T09:37:28.734Z,18.99
2019-04-16T09:38:26.248Z,18.84
2019-04-16T09:39:27.013Z,18.76
2019-04-16T09:40:26.542Z,19.15
2019-04-16T09:41:27.438Z,19.66
2019-04-16T09:42:27.433Z,19.80
2019-04-16T09:43:27.148Z,19.95
2019-04-16T09:44:31.083Z,19.61
2019-04-16T09:45:29.535Z,19.35
2019-04-16T09:46:49.599Z,19.54
2019-04-16T09:47:32.672Z,19.60
2019-04-16T09:48:34.082Z,19.83
2019-04-16T09:49:29.291Z,20.03
2019-04-16T09:50:28.429Z,20.13
2019-04-16T09:51:29.432Z,20.18
2019-04-16T09:52:28.783Z,20.34
2019-04-16T09:53:34.284Z,19.87
2019-04-16T09:54:31.141Z,19.66
2019-04-16T09:55:29.364Z,19.20
2019-04-16T09:56:30.592Z,19.15
2019-04-16T09:57:31.463Z,19.11
2019-04-16T09:58:31.448Z,18.86
2019-04-16T09:59:30.033Z,18.86
2019-04-16T10:00:30.454Z,18.57
2019-04-16T10:01:30.949Z,18.62
2019-04-16T10:02:30.543Z,18.73
2019-04-16T10:03:30.777Z,18.67
2019-04-16T10:04:30.905Z,18.47
2019-04-16T10:05:31.456Z,18.64
2019-04-16T10:06:31.326Z,18.67
2019-04-16T10:07:31.942Z,19.01
2019-04-16T10:08:31.649Z,19.32
2019-04-16T10:09:31.785Z,19.47
2019-04-16T10:10:32.972Z,19.70
2019-04-16T10:11:32.770Z,19.50
2019-04-16T10:12:33.321Z,18.99
2019-04-16T10:13:35.876Z,18.84
2019-04-16T10:14:33.788Z,18.79
2019-04-16T10:15:33.010Z,19.33
2019-04-16T10:16:33.140Z,19.40
2019-04-16T10:17:33.281Z,19.53
2019-04-16T10:18:35.074Z,19.61
2019-04-16T10:19:34.539Z,19.86
2019-04-16T10:20:33.766Z,20.09
2019-04-16T10:21:33.886Z,20.30
2019-04-16T10:22:34.096Z,20.18
2019-04-16T10:23:34.247Z,19.57
2019-04-16T10:24:34.958Z,19.25
2019-04-16T10:25:34.563Z,18.97
2019-04-16T10:26:34.966Z,19.08
2019-04-16T10:27:34.935Z,19.31
2019-04-16T10:28:37.010Z,19.02
2019-04-16T10:29:36.415Z,19.24
2019-04-16T10:30:35.645Z,19.47
2019-04-16T10:31:35.763Z,19.76
2019-04-16T10:32:35.888Z,19.90
2019-04-16T10:33:36.136Z,20.20
2019-04-16T10:34:36.563Z,20.06
2019-04-16T10:35:36.619Z,20.05
2019-04-16T10:36:38.009Z,19.61
2019-04-16T10:37:37.872Z,19.57
2019-04-16T10:38:37.093Z,19.10
2019-04-16T10:39:37.481Z,18.67
2019-04-16T10:40:37.968Z,18.73
2019-04-16T10:41:37.616Z,18.83
2019-04-16T10:42:37.857Z,18.92
2019-04-16T10:43:44.402Z,18.82
2019-04-16T10:44:40.248Z,18.77
2019-04-16T10:45:38.428Z,18.64
2019-04-16T10:46:38.538Z,18.43
2019-04-16T10:47:38.762Z,18.40
2019-04-16T10:48:39.018Z,18.77
2019-04-16T10:49:39.471Z,18.95
2019-04-16T10:50:39.352Z,19.02
2019-04-16T10:51:40.489Z,19.15
2019-04-16T10:52:39.629Z,19.36
2019-04-16T10:53:39.747Z,19.61
2019-04-16T10:54:39.900Z,19.61
2019-04-16T10:55:40.063Z,19.63
2019-04-16T10:56:40.346Z,19.87
2019-04-16T10:57:40.401Z,19.68
2019-04-16T10:58:41.486Z,19.29
2019-04-16T10:59:40.770Z,19.05
2019-04-16T11:00:40.912Z,19.05
2019-04-16T11:01:41.065Z,19.28
2019-04-16T11:02:41.245Z,19.01
2019-04-16T11:03:41.414Z,18.72
2019-04-16T11:04:43.303Z,18.64
2019-04-16T11:05:42.807Z,18.68
2019-04-16T11:06:41.950Z,18.77
2019-04-16T11:07:42.124Z,18.94
2019-04-16T11:08:42.268Z,18.97
2019-04-16T11:09:42.494Z,19.20
2019-04-16T11:10:43.746Z,19.18
2019-04-16T11:11:42.866Z,19.20
2019-04-16T11:12:43.022Z,19.43
2019-04-16T11:13:43.168Z,19.36
2019-04-16T11:14:43.341Z,19.18
2019-04-16T11:15:43.476Z,19.02
2019-04-16T11:16:43.760Z,18.82
2019-04-16T11:17:43.835Z,18.84
2019-04-16T11:18:43.977Z,18.87
2019-04-16T11:19:44.173Z,19.06
2019-04-16T11:20:44.403Z,19.35
2019-04-16T11:21:44.450Z,19.51
2019-04-16T11:22:44.581Z,19.38
2019-04-16T11:23:45.471Z,19.39
2019-04-16T11:24:45.472Z,19.29
2019-04-16T11:25:45.070Z,18.92
2019-04-16T11:26:45.211Z,18.68
2019-04-16T11:27:45.349Z,18.70
2019-04-16T11:28:45.952Z,18.92
2019-04-16T11:29:46.713Z,18.86
2019-04-16T11:30:48.714Z,18.90
2019-04-16T11:31:47.036Z,18.92
2019-04-16T11:32:46.117Z,18.94
2019-04-16T11:33:46.271Z,18.82
2019-04-16T11:34:46.389Z,18.73
2019-04-16T11:35:46.989Z,18.65
2019-04-16T11:36:46.864Z,18.43
2019-04-16T11:37:47.033Z,18.52
2019-04-16T11:38:47.207Z,18.36
2019-04-16T11:39:47.970Z,18.50
2019-04-16T11:40:47.572Z,18.67
2019-04-16T11:41:47.714Z,18.61
2019-04-16T11:42:47.888Z,18.57
2019-04-16T11:43:48.056Z,18.68
2019-04-16T11:44:50.209Z,18.46
2019-04-16T11:45:49.359Z,18.39
2019-04-16T11:46:48.479Z,18.55
2019-04-16T11:47:48.986Z,18.73
2019-04-16T11:48:50.327Z,18.80
2019-04-16T11:49:50.060Z,18.76
2019-04-16T11:50:49.168Z,18.87
2019-04-16T11:51:49.305Z,19.08
2019-04-16T11:52:50.011Z,19.31
2019-04-16T11:53:49.789Z,19.48
2019-04-16T11:54:49.950Z,19.57
2019-04-16T11:55:50.100Z,19.68
2019-04-16T11:56:50.252Z,19.83
2019-04-16T11:57:50.373Z,20.08
2019-04-16T11:58:50.644Z,20.08
2019-04-16T12:00:05.811Z,19.83
2019-04-16T12:00:51.942Z,19.76
2019-04-16T12:01:51.127Z,19.54
2019-04-16T12:02:51.238Z,19.48
2019-04-16T12:03:51.365Z,19.42
2019-04-16T12:04:55.942Z,19.39
2019-04-16T12:05:52.719Z,19.18
2019-04-16T12:06:51.954Z,19.15
2019-04-16T12:07:52.258Z,18.91
2019-04-16T12:08:52.395Z,18.91
2019-04-16T12:09:53.001Z,19.02
2019-04-16T12:10:53.520Z,19.28
2019-04-16T12:11:52.875Z,19.14
2019-04-16T12:12:52.996Z,19.33
2019-04-16T12:13:53.125Z,19.21
2019-04-16T12:14:53.285Z,19.20
2019-04-16T12:15:53.431Z,19.35
2019-04-16T12:16:53.590Z,19.55
2019-04-16T12:17:54.541Z,19.47
2019-04-16T12:18:55.025Z,19.18
2019-04-16T12:19:54.275Z,18.82
2019-04-16T12:20:54.469Z,18.82
2019-04-16T12:21:54.608Z,18.92
2019-04-16T12:22:54.752Z,18.90
2019-04-16T12:23:55.491Z,18.86
2019-04-16T12:24:54.999Z,18.97
2019-04-16T12:25:55.247Z,18.77
2019-04-16T12:26:55.509Z,18.80
2019-04-16T12:27:55.650Z,18.77
2019-04-16T12:28:55.811Z,18.76
2019-04-16T12:29:56.991Z,18.98
2019-04-16T12:30:56.228Z,19.13
2019-04-16T12:31:56.352Z,18.94
2019-04-16T12:32:56.451Z,18.95
2019-04-16T12:33:56.741Z,18.99
2019-04-16T12:34:56.849Z,18.76
2019-04-16T12:35:57.097Z,18.74
2019-04-16T12:36:57.387Z,18.90
2019-04-16T12:37:58.519Z,19.02
2019-04-16T12:38:57.731Z,19.08
2019-04-16T12:39:58.525Z,19.15
2019-04-16T12:40:58.105Z,19.24
2019-04-16T12:42:00.160Z,18.83
2019-04-16T12:42:59.552Z,18.76
2019-04-16T12:43:59.542Z,18.72
2019-04-16T12:44:58.936Z,18.91
2019-04-16T12:45:59.078Z,19.06
2019-04-16T12:46:59.257Z,19.39
2019-04-16T12:47:59.478Z,18.95
2019-04-16T12:48:59.537Z,18.83
2019-04-16T12:49:59.664Z,19.11
2019-04-16T12:50:59.827Z,19.39
2019-04-16T12:51:59.959Z,18.98
2019-04-16T12:53:00.135Z,18.67
2019-04-16T12:54:00.260Z,18.79
2019-04-16T12:55:00.423Z,18.68
2019-04-16T12:56:05.939Z,19.17
2019-04-16T12:57:02.763Z,19.18
2019-04-16T12:58:00.997Z,19.11
2019-04-16T12:59:02.104Z,19.46
2019-04-16T13:00:01.513Z,19.60
2019-04-16T13:01:03.169Z,19.40
2019-04-16T13:02:02.586Z,19.20
2019-04-16T13:03:01.725Z,19.13
2019-04-16T13:04:02.498Z,19.11
2019-04-16T13:05:02.510Z,19.05
2019-04-16T13:06:02.864Z,18.86